Time;durP1;ratioP1;P1;durP2;ratioP2;P2;SDS_P1;SDS_P2;PMS_P1;PMS_P2;Temp;Humidity;BMP_temperature;BMP_pressure;BME280_temperature;BME280_humidity;BME280_pressure;Samples;Min_cycle;Max_cycle;Signal;HPM_P1;HPM_P2
2022/03/25 00:01:28;;;;;;;7.05;6.35;;;;;;;9.89;39.95;101752.61;1704274;83;21536;-65
2022/03/25 00:03:56;;;;;;;8.73;7.25;;;;;;;9.85;39.88;101751.30;1704643;83;21040;-65
2022/03/25 00:06:26;;;;;;;9.45;7.25;;;;;;;9.82;39.71;101751.33;1699462;83;21055;-65
2022/03/25 00:08:53;;;;;;;9.45;7.80;;;;;;;9.80;39.29;101750.89;1704911;83;21031;-65
2022/03/25 00:11:22;;;;;;;9.70;7.08;;;;;;;9.75;39.23;101749.59;1704389;83;21044;-65
2022/03/25 00:13:49;;;;;;;9.70;7.33;;;;;;;9.73;39.13;101747.44;1704640;83;21043;-65
2022/03/25 00:16:16;;;;;;;9.40;6.90;;;;;;;9.71;38.98;101754.38;1704718;83;21059;-65
2022/03/25 00:18:44;;;;;;;9.20;7.22;;;;;;;9.72;39.08;101750.92;1704179;83;21000;-65
2022/03/25 00:21:12;;;;;;;10.05;6.97;;;;;;;9.72;38.97;101745.73;1706564;83;21099;-65
2022/03/25 00:23:40;;;;;;;8.68;6.75;;;;;;;9.73;38.99;101747.44;1707299;83;21623;-65
2022/03/25 00:26:07;;;;;;;13.58;7.50;;;;;;;9.73;38.99;101738.34;1706934;83;21046;-66
2022/03/25 00:28:36;;;;;;;7.50;6.72;;;;;;;9.72;39.72;101735.33;1704329;83;21052;-66
2022/03/25 00:31:06;;;;;;;9.60;7.35;;;;;;;9.74;40.79;101732.72;1706002;83;21060;-66
2022/03/25 00:33:32;;;;;;;9.63;6.97;;;;;;;9.73;41.44;101731.84;1706381;83;21070;-65
2022/03/25 00:36:01;;;;;;;8.03;6.50;;;;;;;9.72;41.71;101737.93;1707366;83;21091;-66
2022/03/25 00:38:32;;;;;;;;;;;;;;;9.71;41.79;101730.98;1709932;83;21015;-66
2022/03/25 00:40:59;;;;;;;8.05;6.25;;;;;;;9.68;41.85;101732.31;1705897;83;20113;-66
2022/03/25 00:43:28;;;;;;;10.30;7.17;;;;;;;9.65;42.05;101727.11;1704513;83;21004;-66
2022/03/25 00:45:55;;;;;;;8.03;7.03;;;;;;;9.63;42.28;101722.77;1704340;83;21111;-65
2022/03/25 00:48:23;;;;;;;8.55;7.08;;;;;;;9.61;42.28;101721.48;1704731;83;21107;-65
2022/03/25 00:50:51;;;;;;;7.40;6.65;;;;;;;9.59;42.05;101723.23;1704525;83;21043;-66
2022/03/25 00:53:19;;;;;;;9.28;7.53;;;;;;;9.59;42.39;101734.92;1705294;83;21074;-66
2022/03/25 00:55:46;;;;;;;10.60;7.37;;;;;;;9.57;41.92;101723.66;1707455;83;21031;-65
2022/03/25 00:58:15;;;;;;;9.55;7.60;;;;;;;9.56;40.72;101722.38;1707320;83;21055;-66
2022/03/25 01:00:42;;;;;;;8.85;7.47;;;;;;;9.55;40.53;101721.50;1706304;83;21043;-66
2022/03/25 01:03:09;;;;;;;9.73;7.22;;;;;;;9.53;40.82;101715.45;1704368;83;21535;-66
2022/03/25 01:05:37;;;;;;;9.85;7.03;;;;;;;9.52;41.29;101721.49;1695224;83;21063;-65
2022/03/25 01:08:07;;;;;;;10.05;7.40;;;;;;;9.50;41.77;101727.12;1707381;83;21564;-66
2022/03/25 01:10:34;;;;;;;7.85;6.83;;;;;;;9.50;41.99;101723.23;1707631;83;21480;-66
2022/03/25 01:13:03;;;;;;;9.33;7.42;;;;;;;9.48;42.62;101720.23;1705881;83;21535;-65
2022/03/25 01:15:31;;;;;;;8.55;6.90;;;;;;;9.46;43.16;101728.00;1704471;83;21103;-65
2022/03/25 01:17:58;;;;;;;14.75;8.03;;;;;;;9.47;42.76;101734.07;1707479;83;21055;-65
2022/03/25 01:20:25;;;;;;;7.30;6.45;;;;;;;9.41;42.57;101732.36;1707464;83;21055;-65
2022/03/25 01:22:53;;;;;;;9.35;7.05;;;;;;;9.39;43.13;101731.92;1706975;83;21087;-66
2022/03/25 01:25:20;;;;;;;9.38;7.47;;;;;;;9.34;43.60;101737.12;1717700;83;21586;-66
2022/03/25 01:27:47;;;;;;;8.88;7.55;;;;;;;9.30;43.41;101727.60;1689623;83;20999;-65
2022/03/25 01:30:15;;;;;;;9.85;7.58;;;;;;;9.28;43.42;101728.46;1717547;83;21510;-66
2022/03/25 01:32:43;;;;;;;10.28;7.72;;;;;;;9.23;43.36;101725.89;1718017;83;21026;-66
2022/03/25 01:35:13;;;;;;;12.37;7.92;;;;;;;9.22;43.07;101729.34;1718586;83;21566;-65
2022/03/25 01:37:43;;;;;;;10.05;8.20;;;;;;;9.19;42.49;101734.52;1720462;83;21540;-65
2022/03/25 01:40:11;;;;;;;9.45;7.55;;;;;;;9.16;42.61;101731.95;1720407;83;21086;-66
2022/03/25 01:42:41;;;;;;;10.70;8.23;;;;;;;9.15;42.76;101729.36;1718879;83;21042;-66
2022/03/25 01:45:11;;;;;;;12.75;7.53;;;;;;;9.12;42.75;101730.22;1718410;82;21456;-66
2022/03/25 01:47:38;;;;;;;9.65;7.65;;;;;;;9.13;42.81;101734.53;1717278;83;21070;-66
2022/03/25 01:50:19;;;;;;;9.93;7.80;;;;;;;9.13;43.06;101725.90;1723945;83;21027;-66
2022/03/25 01:52:48;;;;;;;10.90;8.75;;;;;;;9.13;42.75;101724.14;1717081;83;21122;-66
2022/03/25 01:55:20;;;;;;;10.30;8.35;;;;;;;9.12;42.92;101721.13;1717174;83;21503;-66
2022/03/25 01:57:50;;;;;;;12.63;8.53;;;;;;;9.12;43.13;101714.64;1717543;82;21026;-66
2022/03/25 02:00:17;;;;;;;9.53;7.47;;;;;;;9.13;43.39;101720.25;1717960;83;21008;-66
2022/03/25 02:02:48;;;;;;;10.28;8.35;;;;;;;9.13;43.46;101721.55;1713861;82;21582;-66
2022/03/25 02:05:17;;;;;;;9.53;7.70;;;;;;;9.12;43.93;101713.34;1717845;83;21078;-66
2022/03/25 02:07:46;;;;;;;12.88;7.92;;;;;;;9.11;43.95;101718.09;1718834;83;21047;-66
2022/03/25 02:10:13;;;;;;;10.55;7.83;;;;;;;9.10;44.12;101718.97;1719830;83;20995;-66
2022/03/25 02:12:44;;;;;;;10.55;9.05;;;;;;;9.07;44.10;101718.95;1720627;83;21039;-66
2022/03/25 02:15:12;;;;;;;10.18;8.43;;;;;;;9.06;43.99;101717.23;1720521;83;21036;-65
2022/03/25 02:17:41;;;;;;;9.40;8.33;;;;;;;9.06;43.34;101717.23;1718141;83;21529;-66
2022/03/25 02:20:11;;;;;;;9.98;8.33;;;;;;;9.03;43.00;101717.22;1717760;83;21024;-65
2022/03/25 02:22:40;;;;;;;11.53;8.08;;;;;;;9.00;42.76;101714.65;1717337;83;21011;-65
2022/03/25 02:25:09;;;;;;;10.25;7.60;;;;;;;8.97;42.41;101725.02;1717850;83;21054;-65
2022/03/25 02:27:37;;;;;;;11.78;8.63;;;;;;;8.93;41.86;101720.69;1689276;83;21534;-65
2022/03/25 02:30:07;;;;;;;9.83;7.95;;;;;;;8.92;42.14;101726.77;1718176;83;21106;-65
2022/03/25 02:32:35;;;;;;;10.05;7.47;;;;;;;8.89;42.48;101721.55;1714233;83;21569;-66
2022/03/25 02:35:03;;;;;;;10.88;8.13;;;;;;;8.85;42.59;101721.13;1720622;83;21058;-65
2022/03/25 02:37:31;;;;;;;10.53;8.43;;;;;;;8.82;42.75;101720.68;1719968;83;21074;-65
2022/03/25 02:39:58;;;;;;;11.95;8.58;;;;;;;8.80;42.44;101725.42;1717542;83;21539;-66
2022/03/25 02:42:25;;;;;;;9.53;8.03;;;;;;;8.78;42.44;101729.75;1722770;83;21063;-66
2022/03/25 02:44:53;;;;;;;12.70;8.55;;;;;;;8.77;42.92;101731.93;1715755;83;21023;-66
2022/03/25 02:47:20;;;;;;;12.55;8.25;;;;;;;8.76;42.67;101730.18;1721626;83;21083;-65
2022/03/25 02:49:48;;;;;;;13.95;9.45;;;;;;;8.75;42.77;101736.25;1720023;83;21047;-66
2022/03/25 02:52:15;;;;;;;9.78;8.13;;;;;;;8.73;43.04;101728.90;1717287;82;21050;-65
2022/03/25 02:54:43;;;;;;;12.37;9.20;;;;;;;8.72;42.64;101732.34;1717882;83;21499;-65
2022/03/25 02:57:10;;;;;;;11.73;8.90;;;;;;;8.69;42.78;101740.14;1716865;83;21544;-65
2022/03/25 02:59:38;;;;;;;11.55;9.00;;;;;;;8.69;43.19;101737.55;1711377;82;21061;-65
2022/03/25 03:02:07;;;;;;;10.80;8.83;;;;;;;8.67;43.60;101740.57;1719970;83;21059;-66
2022/03/25 03:04:35;;;;;;;12.20;9.20;;;;;;;8.66;43.52;101744.01;1718366;83;21039;-65
2022/03/25 03:07:04;;;;;;;9.80;8.78;;;;;;;8.65;43.62;101742.30;1717044;82;21511;-66
2022/03/25 03:09:31;;;;;;;10.98;9.00;;;;;;;8.64;43.83;101743.14;1711623;83;21038;-66
2022/03/25 03:11:59;;;;;;;11.45;9.78;;;;;;;8.61;44.03;101741.86;1714133;83;21531;-66
2022/03/25 03:14:26;;;;;;;11.75;8.30;;;;;;;8.57;43.97;101742.72;1720402;83;21078;-66
2022/03/25 03:16:55;;;;;;;12.15;8.73;;;;;;;8.53;44.28;101737.93;1719277;83;21039;-66
2022/03/25 03:19:23;;;;;;;11.15;8.53;;;;;;;8.52;44.48;101734.92;1717942;83;21019;-65
2022/03/25 03:21:53;;;;;;;11.73;9.15;;;;;;;8.53;44.49;101742.27;1716542;83;21051;-66
2022/03/25 03:24:20;;;;;;;12.03;9.53;;;;;;;8.53;44.58;101742.27;1714769;83;21585;-66
2022/03/25 03:26:48;;;;;;;15.72;10.13;;;;;;;8.53;44.67;101741.82;1707426;83;21088;-67
2022/03/25 03:29:15;;;;;;;11.75;9.08;;;;;;;8.52;44.67;101738.81;1693700;83;21543;-66
2022/03/25 03:31:44;;;;;;;11.53;8.75;;;;;;;8.51;44.49;101741.41;1704530;83;21075;-66
2022/03/25 03:34:12;;;;;;;12.82;9.23;;;;;;;8.51;44.56;101746.59;1709711;83;21574;-66
2022/03/25 03:36:41;;;;;;;12.98;10.30;;;;;;;8.52;44.66;101746.59;1703368;83;21115;-66
2022/03/25 03:39:11;;;;;;;11.25;9.28;;;;;;;8.51;44.42;101750.48;1715885;83;21511;-66
2022/03/25 03:41:38;;;;;;;12.45;9.28;;;;;;;8.50;44.73;101757.81;1706784;83;21083;-65
2022/03/25 03:44:06;;;;;;;12.85;9.83;;;;;;;8.49;44.56;101758.70;1704701;83;21095;-65
2022/03/25 03:46:33;;;;;;;14.45;9.80;;;;;;;8.47;44.32;101757.83;1706370;83;21554;-66
2022/03/25 03:49:00;;;;;;;12.23;9.00;;;;;;;8.44;44.38;101752.62;1706516;83;21052;-66
2022/03/25 03:51:29;;;;;;;10.20;8.83;;;;;;;8.42;44.25;101753.05;1707455;83;21051;-66
2022/03/25 03:53:56;;;;;;;12.63;10.60;;;;;;;8.40;44.04;101750.88;1707350;83;21036;-65
2022/03/25 03:56:23;;;;;;;13.28;9.50;;;;;;;8.37;44.13;101747.84;1704679;83;21024;-65
2022/03/25 03:58:52;;;;;;;10.43;8.68;;;;;;;8.35;43.56;101746.09;1698684;83;21505;-66
2022/03/25 04:01:19;;;;;;;10.58;9.43;;;;;;;8.32;43.57;101746.09;1705241;83;21035;-67
2022/03/25 04:03:46;;;;;;;15.23;10.98;;;;;;;8.31;44.24;101740.46;1707190;83;21024;-67
2022/03/25 04:06:15;;;;;;;14.23;10.28;;;;;;;8.29;44.37;101733.98;1707607;83;22468;-67
2022/03/25 04:08:42;;;;;;;13.65;11.45;;;;;;;8.30;44.67;101733.56;1704171;83;21508;-66
2022/03/25 04:11:10;;;;;;;13.95;10.88;;;;;;;8.31;44.72;101735.28;1709934;83;21059;-67
2022/03/25 04:13:37;;;;;;;15.45;11.78;;;;;;;8.31;43.83;101737.87;1703186;83;21042;-66
2022/03/25 04:16:05;;;;;;;16.05;11.75;;;;;;;8.33;43.68;101738.73;1709484;83;21036;-67
2022/03/25 04:18:33;;;;;;;23.27;13.03;;;;;;;8.33;43.80;101740.03;1706792;83;21569;-67
2022/03/25 04:20:59;;;;;;;17.17;11.97;;;;;;;8.33;43.88;101743.92;1697070;83;21046;-67
2022/03/25 04:23:27;;;;;;;16.37;12.47;;;;;;;8.32;44.21;101744.80;1704984;83;21028;-66
2022/03/25 04:25:54;;;;;;;15.63;11.97;;;;;;;8.33;44.44;101747.81;1703255;83;21102;-67
2022/03/25 04:28:23;;;;;;;15.03;11.60;;;;;;;8.35;44.66;101752.58;1704510;83;21036;-66
2022/03/25 04:30:51;;;;;;;14.50;11.30;;;;;;;8.35;44.15;101747.39;1704167;83;21039;-67
2022/03/25 04:33:18;;;;;;;13.95;11.60;;;;;;;8.35;44.28;101749.98;1704722;83;21055;-66
2022/03/25 04:35:46;;;;;;;17.42;11.57;;;;;;;8.38;44.23;101746.12;1704204;83;21051;-66
2022/03/25 04:38:14;;;;;;;15.55;10.80;;;;;;;8.40;43.57;101753.47;1704670;83;21075;-67
2022/03/25 04:40:42;;;;;;;15.40;11.40;;;;;;;8.41;43.75;101755.22;1706617;83;21047;-66
2022/03/25 04:43:09;;;;;;;15.25;11.22;;;;;;;8.42;43.38;101755.64;1707192;83;21083;-67
2022/03/25 04:45:36;;;;;;;16.00;12.00;;;;;;;8.39;43.55;101751.30;1706677;83;21034;-66
2022/03/25 04:48:07;;;;;;;13.38;11.80;;;;;;;8.38;43.49;101748.71;1704527;83;21524;-66
2022/03/25 04:50:33;;;;;;;14.85;11.73;;;;;;;8.38;43.75;101755.19;1703650;83;20985;-67
2022/03/25 04:53:00;;;;;;;17.55;12.23;;;;;;;8.40;43.96;101751.75;1706726;83;21039;-67
2022/03/25 04:55:28;;;;;;;14.78;11.35;;;;;;;8.40;44.13;101754.34;1707372;83;21524;-67
2022/03/25 04:57:55;;;;;;;14.80;12.13;;;;;;;8.43;44.26;101753.50;1707083;83;21575;-67
2022/03/25 05:00:23;;;;;;;14.43;11.00;;;;;;;8.45;44.44;101762.14;1704560;83;21599;-67
2022/03/25 05:02:50;;;;;;;13.10;11.25;;;;;;;8.50;44.06;101755.22;1704350;83;21104;-67
2022/03/25 05:05:17;;;;;;;17.50;11.63;;;;;;;8.53;44.17;101757.84;1704583;83;21076;-67
2022/03/25 05:07:45;;;;;;;15.55;12.35;;;;;;;8.60;43.99;101762.16;1698020;83;21083;-66
2022/03/25 05:10:13;;;;;;;16.23;12.53;;;;;;;8.65;43.57;101765.64;1702702;83;21028;-67
2022/03/25 05:12:42;;;;;;;16.90;11.70;;;;;;;8.69;43.41;101769.98;1704385;83;21090;-66
2022/03/25 05:15:10;;;;;;;18.15;13.15;;;;;;;8.75;43.16;101772.58;1704264;83;21559;-67
2022/03/25 05:17:51;;;;;;;15.70;12.65;;;;;;;8.77;43.30;101764.37;1704565;83;21008;-67
2022/03/25 05:20:19;;;;;;;15.48;12.53;;;;;;;8.81;43.56;101768.70;1704516;83;21031;-67
2022/03/25 05:22:48;;;;;;;16.48;12.18;;;;;;;8.87;43.65;101770.00;1705566;83;21032;-67
2022/03/25 05:25:16;;;;;;;14.58;11.50;;;;;;;8.92;43.58;101767.00;1711950;83;21153;-67
2022/03/25 05:27:52;;;;;;;15.85;11.48;;;;;;;8.99;43.57;101772.61;1715002;83;21068;-67
2022/03/25 05:30:26;;;;;;;14.53;12.23;;;;;;;9.05;43.54;101775.20;1715020;83;21071;-67
2022/03/25 05:32:55;;;;;;;18.90;14.00;;;;;;;9.12;43.28;101771.77;1718501;83;21043;-66
2022/03/25 05:35:24;;;;;;;21.82;13.85;;;;;;;9.16;42.96;101777.81;1712725;83;21055;-67
2022/03/25 05:37:51;;;;;;;19.07;12.80;;;;;;;9.20;43.11;101780.41;1710661;83;21491;-67
2022/03/25 05:40:21;;;;;;;17.20;13.03;;;;;;;9.25;43.23;101781.30;1718438;83;21582;-67
2022/03/25 05:42:48;;;;;;;17.30;13.30;;;;;;;9.33;43.24;101773.49;1712223;83;20980;-67
2022/03/25 05:45:23;;;;;;;16.50;13.78;;;;;;;9.36;43.02;101780.84;1712258;83;21336;-67
2022/03/25 05:47:50;;;;;;;18.62;14.40;;;;;;;9.39;43.06;101776.95;1712207;83;21015;-67
2022/03/25 05:50:17;;;;;;;16.00;13.20;;;;;;;9.42;42.59;101773.46;1712623;83;21094;-66
2022/03/25 05:52:45;;;;;;;15.23;12.98;;;;;;;9.44;42.54;101777.80;1709173;83;21114;-67
2022/03/25 05:55:13;;;;;;;19.32;13.62;;;;;;;9.47;42.58;101780.41;1712204;83;21050;-67
2022/03/25 05:57:42;;;;;;;15.80;13.05;;;;;;;9.49;42.50;101781.27;1711985;83;21031;-67
2022/03/25 06:00:11;;;;;;;17.15;13.18;;;;;;;9.55;42.91;101784.29;1712008;83;21074;-67
2022/03/25 06:02:42;;;;;;;17.42;13.75;;;;;;;9.63;43.05;101783.41;1712295;83;21070;-66
2022/03/25 06:05:11;;;;;;;16.85;13.30;;;;;;;9.77;42.64;101783.38;1712282;83;21019;-66
2022/03/25 06:07:39;;;;;;;16.15;12.30;;;;;;;9.93;42.96;101782.92;1713299;83;20983;-66
2022/03/25 06:10:09;;;;;;;15.13;12.28;;;;;;;10.13;42.49;101781.16;1714965;83;21531;-66
2022/03/25 06:12:39;;;;;;;15.25;12.70;;;;;;;10.32;42.21;101778.91;1715006;83;21042;-67
2022/03/25 06:15:08;;;;;;;16.15;12.45;;;;;;;10.54;41.71;101777.92;1714131;83;21102;-66
2022/03/25 06:17:47;;;;;;;14.90;12.30;;;;;;;10.72;41.05;101776.52;1712563;83;21015;-66
2022/03/25 06:20:24;;;;;;;17.40;13.20;;;;;;;10.87;40.80;101783.36;1679498;85;21054;-66
2022/03/25 06:22:51;;;;;;;17.10;12.63;;;;;;;10.93;40.69;101783.32;1671077;85;21542;-66
2022/03/25 06:25:20;;;;;;;14.95;12.47;;;;;;;11.05;40.41;101786.70;1677099;84;21621;-67
2022/03/25 06:27:58;;;;;;;15.23;12.63;;;;;;;11.15;39.93;101792.27;1683177;85;21495;-66
2022/03/25 06:32:58;;;;;;;15.23;11.78;;;;;;;11.35;39.58;101802.09;1644651;87;21204;-66
2022/03/25 06:35:26;;;;;;;16.07;11.53;;;;;;;11.54;39.51;101807.17;1644564;86;21122;-66
2022/03/25 06:37:53;;;;;;;21.12;12.50;;;;;;;11.79;39.41;101804.33;1644877;87;21045;-66
2022/03/25 06:40:20;;;;;;;12.47;10.82;;;;;;;12.07;39.22;101805.79;1644550;87;21054;-66
2022/03/25 06:42:48;;;;;;;13.45;10.68;;;;;;;12.30;37.72;101804.22;1644650;87;21483;-66
2022/03/25 06:45:17;;;;;;;14.53;11.63;;;;;;;12.40;37.23;101807.13;1644713;87;21066;-66
2022/03/25 06:47:45;;;;;;;13.53;11.18;;;;;;;12.46;37.14;101812.27;1644739;87;21525;-65
2022/03/25 06:50:14;;;;;;;13.62;11.25;;;;;;;12.46;36.73;101813.58;1644676;87;21030;-66
2022/03/25 06:52:42;;;;;;;14.07;10.93;;;;;;;12.38;36.34;101821.08;1644691;87;21026;-66
2022/03/25 06:55:10;;;;;;;14.80;11.57;;;;;;;12.28;36.39;101815.11;1644787;87;21025;-66
2022/03/25 06:57:41;;;;;;;14.98;11.28;;;;;;;12.22;36.76;101819.06;1644847;87;21061;-66
2022/03/25 07:00:12;;;;;;;13.90;11.22;;;;;;;12.21;37.33;101825.19;1644765;87;21094;-66
2022/03/25 07:02:41;;;;;;;11.93;10.55;;;;;;;12.28;37.51;101825.55;1644678;87;21518;-66
2022/03/25 07:05:11;;;;;;;14.10;11.05;;;;;;;12.38;37.48;101820.64;1644256;87;21094;-66
2022/03/25 07:07:40;;;;;;;12.55;11.22;;;;;;;12.36;37.38;101822.84;1644900;87;21548;-66
2022/03/25 07:10:09;;;;;;;13.05;10.60;;;;;;;12.22;38.00;101826.89;1644813;87;21002;-66
2022/03/25 07:12:41;;;;;;;15.68;11.60;;;;;;;12.16;38.07;101832.19;1644684;87;21065;-66
2022/03/25 07:15:10;;;;;;;12.03;10.68;;;;;;;12.11;38.19;101826.17;1648947;86;21021;-66
2022/03/25 07:17:41;;;;;;;14.30;11.10;;;;;;;12.12;38.56;101829.19;1669418;86;21041;-66
2022/03/25 07:20:17;;;;;;;12.50;10.53;;;;;;;12.16;38.58;101830.88;1669144;86;21049;-66
2022/03/25 07:22:48;;;;;;;17.30;12.82;;;;;;;12.13;38.54;101837.02;1665611;86;21613;-66
2022/03/25 07:25:15;;;;;;;12.98;11.08;;;;;;;12.10;38.73;101838.78;1667904;86;21029;-66
2022/03/25 07:27:43;;;;;;;15.00;11.90;;;;;;;12.06;38.30;101833.17;1669228;86;21110;-66
2022/03/25 07:30:11;;;;;;;15.35;11.22;;;;;;;12.07;38.29;101833.61;1694616;83;22325;-66
2022/03/25 07:32:38;;;;;;;15.43;12.13;;;;;;;12.10;38.00;101832.26;1718592;83;21023;-66
2022/03/25 07:35:07;;;;;;;15.18;12.15;;;;;;;12.12;37.76;101838.32;1711729;83;21067;-66
2022/03/25 07:37:34;;;;;;;16.40;12.30;;;;;;;12.10;37.96;101838.78;1712218;83;21035;-66
2022/03/25 07:40:05;;;;;;;15.58;11.55;;;;;;;12.12;38.32;101838.32;1711854;83;21039;-66
2022/03/25 07:42:32;;;;;;;12.78;10.95;;;;;;;12.16;38.07;101836.10;1712102;83;21027;-66
2022/03/25 07:44:59;;;;;;;16.93;11.88;;;;;;;12.23;38.00;101837.77;1713241;83;21523;-66
2022/03/25 07:47:26;;;;;;;12.95;11.55;;;;;;;12.28;37.72;101835.99;1711047;83;21050;-66
2022/03/25 07:49:53;;;;;;;14.03;11.33;;;;;;;12.33;37.78;101834.17;1707881;83;21051;-66
2022/03/25 07:52:20;;;;;;;15.23;12.33;;;;;;;12.38;37.66;101833.69;1711915;83;21055;-66
2022/03/25 07:54:48;;;;;;;12.18;10.82;;;;;;;12.41;37.73;101838.86;1712232;83;21055;-66
2022/03/25 07:57:15;;;;;;;15.15;11.83;;;;;;;12.41;37.76;101840.16;1713890;83;21047;-66
2022/03/25 07:59:43;;;;;;;13.55;11.43;;;;;;;12.42;37.32;101843.65;1715245;83;21091;-66
2022/03/25 08:02:11;;;;;;;16.40;12.13;;;;;;;12.38;38.02;101834.13;1714549;83;21068;-66
2022/03/25 08:04:39;;;;;;;15.55;12.37;;;;;;;12.40;37.75;101837.15;1718944;83;21116;-66
2022/03/25 08:07:06;;;;;;;13.93;11.88;;;;;;;12.47;37.45;101841.39;1712779;83;21051;-66
2022/03/25 08:09:33;;;;;;;18.45;13.48;;;;;;;12.55;37.55;101840.85;1702156;83;21036;-66
2022/03/25 08:12:00;;;;;;;19.70;13.28;;;;;;;12.62;37.58;101837.30;1720881;83;21039;-66
2022/03/25 08:14:27;;;;;;;19.37;13.28;;;;;;;12.68;37.58;101831.98;1715142;83;21047;-66
2022/03/25 08:16:54;;;;;;;15.38;12.03;;;;;;;12.76;37.46;101834.05;1710853;83;21098;-66
2022/03/25 08:19:22;;;;;;;14.90;12.60;;;;;;;12.85;37.40;101829.15;1713741;83;21045;-65
2022/03/25 08:21:51;;;;;;;14.55;12.05;;;;;;;12.92;37.38;101832.95;1711847;83;21575;-66
2022/03/25 08:29:50;;;;;;;16.25;12.10;;;;;;;12.98;37.49;101828.94;1711544;83;21024;-66
2022/03/25 08:32:17;;;;;;;16.32;13.53;;;;;;;12.99;37.75;101838.52;1711827;83;21519;-66
2022/03/25 08:34:44;;;;;;;14.65;12.75;;;;;;;12.94;38.44;101836.87;1712496;83;21051;-67
2022/03/25 08:37:11;;;;;;;15.45;11.70;;;;;;;12.90;38.84;101839.11;1711577;83;21055;-65
2022/03/25 08:39:39;;;;;;;13.78;11.60;;;;;;;12.91;39.01;101839.52;1713236;83;21047;-66
2022/03/25 08:42:08;;;;;;;15.63;11.95;;;;;;;12.90;38.72;101843.86;1714770;83;21039;-66
2022/03/25 08:44:36;;;;;;;15.40;12.63;;;;;;;12.85;38.45;101836.98;1715125;83;21051;-66
2022/03/25 08:47:04;;;;;;;19.00;12.60;;;;;;;12.76;38.58;101835.36;1713505;83;21035;-66
2022/03/25 08:49:33;;;;;;;19.00;11.80;;;;;;;12.73;38.53;101839.33;1712695;83;21094;-66
2022/03/25 08:52:00;;;;;;;17.12;12.13;;;;;;;12.72;38.53;101838.90;1710162;83;21048;-67
2022/03/25 08:54:28;;;;;;;16.77;12.73;;;;;;;12.67;38.65;101839.85;1710077;83;21050;-66
2022/03/25 08:56:55;;;;;;;16.65;11.68;;;;;;;12.67;38.69;101838.11;1716775;83;21531;-66
2022/03/25 08:59:22;;;;;;;14.90;12.53;;;;;;;12.64;39.06;101847.28;1713698;83;21032;-66
2022/03/25 09:01:50;;;;;;;14.73;12.40;;;;;;;12.56;39.42;101842.59;1712118;83;21067;-67
2022/03/25 09:04:17;;;;;;;17.15;13.48;;;;;;;12.49;39.72;101843.55;1711967;83;21056;-66
2022/03/25 09:06:45;;;;;;;15.32;13.30;;;;;;;12.40;40.02;101846.28;1711954;83;21071;-66
2022/03/25 09:09:14;;;;;;;20.27;14.33;;;;;;;12.30;40.64;101847.28;1710048;83;21024;-66
2022/03/25 09:11:42;;;;;;;17.48;13.93;;;;;;;12.20;40.87;101858.67;1714977;83;21562;-66
2022/03/25 09:14:11;;;;;;;20.27;13.98;;;;;;;12.14;41.16;101856.13;1710760;83;21546;-66
2022/03/25 09:16:41;;;;;;;16.48;13.68;;;;;;;12.13;41.10;101859.64;1713599;83;21059;-66
2022/03/25 09:19:10;;;;;;;17.52;14.58;;;;;;;12.15;41.00;101863.09;1711940;83;21058;-66
2022/03/25 09:21:37;;;;;;;16.87;13.45;;;;;;;12.16;41.03;101860.89;1711811;83;21051;-65
2022/03/25 09:24:05;;;;;;;18.10;13.38;;;;;;;12.17;41.19;101866.55;1712353;83;21055;-66
2022/03/25 09:26:34;;;;;;;16.48;12.53;;;;;;;12.22;40.60;101864.73;1715697;83;21110;-66
2022/03/25 09:29:01;;;;;;;16.48;13.30;;;;;;;12.29;40.36;101867.72;1718102;83;21050;-66
2022/03/25 09:31:29;;;;;;;15.40;12.68;;;;;;;12.38;39.58;101865.45;1720573;83;21055;-66
2022/03/25 09:35:08;;;;;;;20.43;13.00;;;;;;;12.45;39.85;101865.34;1720349;83;21082;-66
2022/03/25 09:36:25;;;;;;;17.98;13.50;;;;;;;12.52;39.23;101872.23;1715232;83;21504;-66
2022/03/25 09:38:52;;;;;;;16.05;12.85;;;;;;;12.56;39.10;101863.48;1718404;83;21505;-66
2022/03/25 09:41:20;;;;;;;16.60;13.28;;;;;;;12.64;38.96;101866.86;1719606;83;21030;-67
2022/03/25 09:43:47;;;;;;;20.70;13.05;;;;;;;12.72;38.87;101874.16;1720723;83;21495;-66
2022/03/25 09:46:15;;;;;;;16.10;13.45;;;;;;;12.77;39.13;101871.05;1720437;83;21043;-66
2022/03/25 09:48:42;;;;;;;15.63;13.18;;;;;;;12.86;38.72;101867.43;1719079;83;21527;-66
2022/03/25 09:51:09;;;;;;;14.70;12.98;;;;;;;12.90;38.67;101867.37;1717709;82;21038;-66
2022/03/25 09:53:36;;;;;;;16.20;12.93;;;;;;;12.92;38.57;101870.83;1717325;83;21058;-66
2022/03/25 09:56:04;;;;;;;18.73;12.85;;;;;;;12.95;38.25;101868.19;1717209;83;20991;-66
2022/03/25 09:58:31;;;;;;;21.40;12.30;;;;;;;13.01;38.31;101873.33;1717314;83;21043;-66
2022/03/25 10:01:00;;;;;;;22.93;14.75;;;;;;;13.04;38.38;101869.38;1718723;83;21562;-66
2022/03/25 10:03:34;;;;;;;14.98;12.60;;;;;;;13.07;38.13;101872.40;1716431;83;21062;-66
2022/03/25 10:06:01;;;;;;;19.37;13.98;;;;;;;13.12;38.00;101877.56;1712749;83;20992;-66
2022/03/25 10:08:32;;;;;;;17.37;14.00;;;;;;;13.19;37.83;101887.06;1708216;83;21047;-65
2022/03/25 10:11:27;;;;;;;23.05;13.35;;;;;;;13.22;38.52;101887.00;1660517;86;21586;-66
2022/03/25 10:14:28;;;;;;;16.25;12.63;;;;;;;13.28;36.87;101893.44;1660140;86;21573;-65
2022/03/25 10:16:53;;;;;;;15.88;12.88;;;;;;;13.34;35.68;101892.05;1635185;87;21118;-66
2022/03/25 10:19:24;;;;;;;16.05;13.60;;;;;;;13.38;36.02;101900.26;1640781;87;21025;-65
2022/03/25 10:22:00;;;;;;;14.78;13.00;;;;;;;13.43;35.48;101906.30;1635851;87;21493;-66
2022/03/25 10:24:49;;;;;;;13.72;12.10;;;;;;;13.43;35.23;101904.98;1588720;89;21121;-66
2022/03/25 10:27:23;;;;;;;14.78;12.53;;;;;;;13.44;34.18;101904.08;1588666;90;21660;-64
2022/03/25 10:29:54;;;;;;;15.90;12.37;;;;;;;13.45;33.70;101906.70;1588322;90;21035;-66
2022/03/25 10:32:23;;;;;;;16.05;12.53;;;;;;;13.42;33.88;101911.09;1588514;89;21090;-65
2022/03/25 10:35:09;;;;;;;22.05;11.70;;;;;;;13.39;34.35;101911.16;1588921;90;21123;-65
2022/03/25 10:37:38;;;;;;;13.80;11.50;;;;;;;13.41;34.48;101904.15;1540475;93;21170;-65
2022/03/25 10:40:07;;;;;;;13.30;11.12;;;;;;;13.49;33.49;101902.28;1541030;93;21054;-66
2022/03/25 10:42:36;;;;;;;14.25;11.80;;;;;;;13.59;33.42;101901.24;1541199;93;21542;-66
2022/03/25 10:45:26;;;;;;;12.30;10.98;;;;;;;13.70;33.16;101901.94;1541138;93;21126;-66
2022/03/25 10:48:12;;;;;;;13.18;10.72;;;;;;;13.80;33.18;101907.00;1490142;96;21636;-66
2022/03/25 10:51:00;;;;;;;13.78;10.80;;;;;;;13.94;32.73;101908.50;1473673;97;21192;-66
2022/03/25 10:53:28;;;;;;;11.40;10.30;;;;;;;14.04;32.36;101917.48;1479673;96;21616;-65
2022/03/25 10:55:58;;;;;;;12.78;11.48;;;;;;;14.16;32.03;101922.49;1482047;96;21115;-66
2022/03/25 10:58:25;;;;;;;14.40;11.85;;;;;;;14.24;33.46;101928.92;1442044;99;21207;-66
2022/03/25 11:00:53;;;;;;;14.43;11.75;;;;;;;14.29;36.14;101937.12;1443906;99;22581;-66
2022/03/25 11:03:20;;;;;;;13.53;11.90;;;;;;;14.27;37.50;101932.34;1445097;99;21136;-66
2022/03/25 11:05:47;;;;;;;16.27;12.58;;;;;;;14.20;38.37;101924.63;1445184;99;21676;-66
2022/03/25 11:08:14;;;;;;;13.62;12.18;;;;;;;14.10;38.59;101927.84;1464345;97;21100;-66
2022/03/25 11:10:41;;;;;;;13.20;11.43;;;;;;;14.02;38.55;101923.19;1464833;97;21597;-65
2022/03/25 11:13:08;;;;;;;14.63;11.45;;;;;;;13.92;38.47;101929.47;1466235;97;21151;-66
2022/03/25 11:15:38;;;;;;;11.83;10.58;;;;;;;13.82;38.08;101936.62;1466817;96;21062;-65
2022/03/25 11:18:06;;;;;;;13.72;11.18;;;;;;;13.70;37.96;101937.25;1473427;97;21182;-66
2022/03/25 11:20:33;;;;;;;12.37;10.93;;;;;;;13.62;38.18;101943.05;1467207;95;21119;-66
2022/03/25 11:23:17;;;;;;;13.58;11.55;;;;;;;13.57;38.44;101938.33;1505294;95;21174;-66
2022/03/25 11:25:48;;;;;;;12.78;10.15;;;;;;;13.51;38.64;101944.95;1498702;95;21191;-66
2022/03/25 11:28:20;;;;;;;12.58;11.25;;;;;;;13.44;38.77;101951.15;1487846;96;21641;-66
2022/03/25 11:30:59;;;;;;;11.35;10.15;;;;;;;13.39;38.96;101951.67;1481674;95;21607;-66
2022/03/25 11:33:27;;;;;;;13.18;10.95;;;;;;;13.31;38.98;101941.77;1507615;92;21021;-66